sensor_id;sensor_type;location;lat;lon;timestamp;pressure;altitude;pressure_sealevel;temperature;humidity
60817;BME280;51921;51.518;-3.188;2023-05-21T00:00:54;102044.34;;;10.38;56.85
60817;BME280;51921;51.518;-3.188;2023-05-21T00:03:19;102044.53;;;9.24;60.05
60817;BME280;51921;51.518;-3.188;2023-05-21T00:05:45;102039.39;;;8.71;62.93
60817;BME280;51921;51.518;-3.188;2023-05-21T00:08:10;102038.31;;;9.00;62.77
60817;BME280;51921;51.518;-3.188;2023-05-21T00:10:35;102037.99;;;9.00;62.71
60817;BME280;51921;51.518;-3.188;2023-05-21T00:13:01;102038.15;;;8.26;65.10
60817;BME280;51921;51.518;-3.188;2023-05-21T00:15:26;102035.08;;;8.18;66.05
60817;BME280;51921;51.518;-3.188;2023-05-21T00:17:52;102031.29;;;9.13;62.67
60817;BME280;51921;51.518;-3.188;2023-05-21T00:20:18;102027.80;;;10.00;59.58
60817;BME280;51921;51.518;-3.188;2023-05-21T00:22:43;102023.77;;;10.77;56.17
60817;BME280;51921;51.518;-3.188;2023-05-21T00:25:09;102026.34;;;12.67;51.94
60817;BME280;51921;51.518;-3.188;2023-05-21T00:27:34;102028.83;;;13.63;49.22
60817;BME280;51921;51.518;-3.188;2023-05-21T00:29:59;102031.52;;;10.12;52.93
60817;BME280;51921;51.518;-3.188;2023-05-21T00:32:25;102032.88;;;10.33;55.23
60817;BME280;51921;51.518;-3.188;2023-05-21T00:34:50;102039.14;;;10.30;55.38
60817;BME280;51921;51.518;-3.188;2023-05-21T00:37:16;102040.60;;;9.91;57.59
60817;BME280;51921;51.518;-3.188;2023-05-21T00:39:41;102038.88;;;9.82;57.75
60817;BME280;51921;51.518;-3.188;2023-05-21T00:42:07;102040.63;;;9.31;58.83
60817;BME280;51921;51.518;-3.188;2023-05-21T00:44:32;102038.29;;;9.11;60.39
60817;BME280;51921;51.518;-3.188;2023-05-21T00:46:58;102031.89;;;8.70;61.73
60817;BME280;51921;51.518;-3.188;2023-05-21T00:49:23;102033.19;;;8.46;62.57
60817;BME280;51921;51.518;-3.188;2023-05-21T00:51:49;102026.16;;;7.67;66.20
60817;BME280;51921;51.518;-3.188;2023-05-21T00:54:14;102026.74;;;8.69;64.06
60817;BME280;51921;51.518;-3.188;2023-05-21T00:56:40;102029.40;;;9.23;61.67
60817;BME280;51921;51.518;-3.188;2023-05-21T00:59:06;102030.34;;;9.73;59.73
60817;BME280;51921;51.518;-3.188;2023-05-21T01:01:31;102037.90;;;8.93;61.32
60817;BME280;51921;51.518;-3.188;2023-05-21T01:03:56;102033.15;;;8.71;61.59
60817;BME280;51921;51.518;-3.188;2023-05-21T01:06:22;102023.71;;;10.42;57.89
60817;BME280;51921;51.518;-3.188;2023-05-21T01:08:48;102018.97;;;10.81;55.59
60817;BME280;51921;51.518;-3.188;2023-05-21T01:11:13;102013.12;;;11.34;53.87
60817;BME280;51921;51.518;-3.188;2023-05-21T01:13:39;102019.49;;;13.23;50.13
60817;BME280;51921;51.518;-3.188;2023-05-21T01:16:04;102021.65;;;12.39;48.61
60817;BME280;51921;51.518;-3.188;2023-05-21T01:18:29;102022.69;;;10.86;53.55
60817;BME280;51921;51.518;-3.188;2023-05-21T01:20:55;102023.69;;;9.31;56.38
60817;BME280;51921;51.518;-3.188;2023-05-21T01:23:20;102025.06;;;9.18;59.28
60817;BME280;51921;51.518;-3.188;2023-05-21T01:25:46;102022.94;;;8.96;59.08
60817;BME280;51921;51.518;-3.188;2023-05-21T01:28:12;102017.06;;;9.29;58.14
60817;BME280;51921;51.518;-3.188;2023-05-21T01:30:39;102017.07;;;8.90;59.11
60817;BME280;51921;51.518;-3.188;2023-05-21T01:33:04;102013.13;;;8.34;60.70
60817;BME280;51921;51.518;-3.188;2023-05-21T01:35:31;102011.65;;;9.00;59.36
60817;BME280;51921;51.518;-3.188;2023-05-21T01:37:58;102012.66;;;9.15;57.61
60817;BME280;51921;51.518;-3.188;2023-05-21T01:40:24;102019.13;;;9.02;58.55
60817;BME280;51921;51.518;-3.188;2023-05-21T01:42:45;102016.18;;;9.14;56.78
60817;BME280;51921;51.518;-3.188;2023-05-21T01:45:11;102019.55;;;8.66;57.14
60817;BME280;51921;51.518;-3.188;2023-05-21T01:47:36;102015.80;;;8.76;57.19
60817;BME280;51921;51.518;-3.188;2023-05-21T01:50:02;102013.24;;;8.47;58.20
60817;BME280;51921;51.518;-3.188;2023-05-21T01:52:27;102016.60;;;8.16;60.02
60817;BME280;51921;51.518;-3.188;2023-05-21T01:54:52;102018.09;;;8.63;60.17
60817;BME280;51921;51.518;-3.188;2023-05-21T01:57:18;102018.52;;;8.13;59.09
60817;BME280;51921;51.518;-3.188;2023-05-21T01:59:43;102014.27;;;9.85;55.60
60817;BME280;51921;51.518;-3.188;2023-05-21T02:02:09;102019.99;;;9.64;55.51
60817;BME280;51921;51.518;-3.188;2023-05-21T02:04:34;102018.46;;;11.99;49.73
60817;BME280;51921;51.518;-3.188;2023-05-21T02:07:00;102021.71;;;9.46;52.85
60817;BME280;51921;51.518;-3.188;2023-05-21T02:09:25;102031.33;;;8.26;56.24
60817;BME280;51921;51.518;-3.188;2023-05-21T02:11:51;102032.89;;;8.06;57.47
60817;BME280;51921;51.518;-3.188;2023-05-21T02:14:16;102036.50;;;9.65;54.99
60817;BME280;51921;51.518;-3.188;2023-05-21T02:16:42;102040.12;;;7.74;57.16
60817;BME280;51921;51.518;-3.188;2023-05-21T02:19:07;102039.31;;;7.63;57.38
60817;BME280;51921;51.518;-3.188;2023-05-21T02:21:33;102042.19;;;6.93;59.21
60817;BME280;51921;51.518;-3.188;2023-05-21T02:23:58;102043.55;;;7.55;59.12
60817;BME280;51921;51.518;-3.188;2023-05-21T02:26:24;102048.65;;;8.38;56.24
60817;BME280;51921;51.518;-3.188;2023-05-21T02:28:49;102041.82;;;11.43;50.76
60817;BME280;51921;51.518;-3.188;2023-05-21T02:31:15;102035.93;;;11.59;48.85
60817;BME280;51921;51.518;-3.188;2023-05-21T02:33:41;102039.55;;;12.64;46.73
60817;BME280;51921;51.518;-3.188;2023-05-21T02:36:06;102038.03;;;13.10;45.83
60817;BME280;51921;51.518;-3.188;2023-05-21T02:38:31;102036.24;;;13.33;45.15
60817;BME280;51921;51.518;-3.188;2023-05-21T02:40:57;102030.43;;;12.45;45.81
60817;BME280;51921;51.518;-3.188;2023-05-21T02:43:22;102027.94;;;13.75;44.01
60817;BME280;51921;51.518;-3.188;2023-05-21T02:45:48;102030.83;;;13.85;43.28
60817;BME280;51921;51.518;-3.188;2023-05-21T02:48:13;102033.27;;;13.23;43.85
60817;BME280;51921;51.518;-3.188;2023-05-21T02:50:39;102034.68;;;13.20;44.45
60817;BME280;51921;51.518;-3.188;2023-05-21T02:53:04;102030.57;;;13.35;44.26
60817;BME280;51921;51.518;-3.188;2023-05-21T02:55:30;102029.59;;;13.74;43.06
60817;BME280;51921;51.518;-3.188;2023-05-21T02:57:55;102025.99;;;14.42;42.32
60817;BME280;51921;51.518;-3.188;2023-05-21T03:00:21;102027.61;;;14.00;41.89
60817;BME280;51921;51.518;-3.188;2023-05-21T03:02:46;102028.53;;;13.08;42.99
60817;BME280;51921;51.518;-3.188;2023-05-21T03:05:12;102024.83;;;12.75;41.70
60817;BME280;51921;51.518;-3.188;2023-05-21T03:07:37;102023.71;;;12.44;42.58
60817;BME280;51921;51.518;-3.188;2023-05-21T03:10:03;102014.70;;;12.21;44.68
60817;BME280;51921;51.518;-3.188;2023-05-21T03:12:28;102015.03;;;12.51;44.24
60817;BME280;51921;51.518;-3.188;2023-05-21T03:14:54;102011.94;;;11.78;46.07
60817;BME280;51921;51.518;-3.188;2023-05-21T03:17:19;102014.37;;;12.82;45.20
60817;BME280;51921;51.518;-3.188;2023-05-21T03:19:45;102007.95;;;11.89;45.64
60817;BME280;51921;51.518;-3.188;2023-05-21T03:22:10;102012.51;;;12.76;44.78
60817;BME280;51921;51.518;-3.188;2023-05-21T03:24:36;102016.64;;;11.42;46.80
60817;BME280;51921;51.518;-3.188;2023-05-21T03:27:01;102019.81;;;12.03;46.39
60817;BME280;51921;51.518;-3.188;2023-05-21T03:29:27;102021.26;;;12.60;45.42
60817;BME280;51921;51.518;-3.188;2023-05-21T03:31:52;102021.07;;;12.43;45.82
60817;BME280;51921;51.518;-3.188;2023-05-21T03:34:18;102019.05;;;12.13;45.90
60817;BME280;51921;51.518;-3.188;2023-05-21T03:36:43;102021.81;;;12.99;44.47
60817;BME280;51921;51.518;-3.188;2023-05-21T03:39:09;102022.65;;;12.35;45.79
60817;BME280;51921;51.518;-3.188;2023-05-21T03:41:34;102020.06;;;11.30;47.52
60817;BME280;51921;51.518;-3.188;2023-05-21T03:44:00;102021.16;;;11.65;47.76
60817;BME280;51921;51.518;-3.188;2023-05-21T03:46:25;102015.42;;;11.32;47.63
60817;BME280;51921;51.518;-3.188;2023-05-21T03:48:50;102020.80;;;10.16;48.78
60817;BME280;51921;51.518;-3.188;2023-05-21T03:51:16;102023.93;;;8.99;50.53
60817;BME280;51921;51.518;-3.188;2023-05-21T03:53:41;102026.94;;;7.85;54.54
60817;BME280;51921;51.518;-3.188;2023-05-21T03:56:07;102030.77;;;7.24;57.29
60817;BME280;51921;51.518;-3.188;2023-05-21T03:58:33;102029.58;;;7.08;58.68
60817;BME280;51921;51.518;-3.188;2023-05-21T04:00:58;102026.18;;;5.77;63.46
60817;BME280;51921;51.518;-3.188;2023-05-21T04:03:24;102026.34;;;6.29;65.69
60817;BME280;51921;51.518;-3.188;2023-05-21T04:05:49;102022.16;;;5.76;66.63
60817;BME280;51921;51.518;-3.188;2023-05-21T04:08:15;102020.50;;;6.36;67.22
60817;BME280;51921;51.518;-3.188;2023-05-21T04:10:40;102016.67;;;7.11;62.67
60817;BME280;51921;51.518;-3.188;2023-05-21T04:13:06;102018.36;;;7.30;60.79
60817;BME280;51921;51.518;-3.188;2023-05-21T04:15:31;102025.42;;;6.32;66.87
60817;BME280;51921;51.518;-3.188;2023-05-21T04:17:57;102021.30;;;7.27;63.80
60817;BME280;51921;51.518;-3.188;2023-05-21T04:20:22;102021.51;;;8.53;58.49
60817;BME280;51921;51.518;-3.188;2023-05-21T04:22:48;102017.81;;;9.98;55.01
60817;BME280;51921;51.518;-3.188;2023-05-21T04:25:13;102022.75;;;8.59;56.70
60817;BME280;51921;51.518;-3.188;2023-05-21T04:27:39;102019.76;;;6.63;61.93
60817;BME280;51921;51.518;-3.188;2023-05-21T04:30:05;102010.89;;;6.42;66.49
60817;BME280;51921;51.518;-3.188;2023-05-21T04:32:30;102006.93;;;5.80;71.43
60817;BME280;51921;51.518;-3.188;2023-05-21T04:34:56;102006.62;;;5.36;74.92
60817;BME280;51921;51.518;-3.188;2023-05-21T04:37:21;102002.92;;;5.48;76.49
60817;BME280;51921;51.518;-3.188;2023-05-21T04:39:46;102000.18;;;5.63;75.42
60817;BME280;51921;51.518;-3.188;2023-05-21T04:42:12;101999.10;;;5.52;75.94
60817;BME280;51921;51.518;-3.188;2023-05-21T04:44:38;101995.22;;;6.13;73.03
60817;BME280;51921;51.518;-3.188;2023-05-21T04:47:03;101991.74;;;5.47;81.20
60817;BME280;51921;51.518;-3.188;2023-05-21T04:49:28;101994.04;;;5.42;82.70
60817;BME280;51921;51.518;-3.188;2023-05-21T04:51:54;101994.74;;;5.39;83.46
60817;BME280;51921;51.518;-3.188;2023-05-21T04:54:19;101993.67;;;5.54;82.86
60817;BME280;51921;51.518;-3.188;2023-05-21T04:56:45;101989.63;;;5.41;83.09
60817;BME280;51921;51.518;-3.188;2023-05-21T04:59:11;101986.70;;;6.33;80.64
60817;BME280;51921;51.518;-3.188;2023-05-21T05:01:36;101984.45;;;6.57;76.47
60817;BME280;51921;51.518;-3.188;2023-05-21T05:04:02;101984.23;;;6.94;74.26
60817;BME280;51921;51.518;-3.188;2023-05-21T05:06:28;101987.76;;;6.93;74.12
60817;BME280;51921;51.518;-3.188;2023-05-21T05:08:53;101994.22;;;5.62;80.68
60817;BME280;51921;51.518;-3.188;2023-05-21T05:11:19;101993.62;;;6.37;79.79
60817;BME280;51921;51.518;-3.188;2023-05-21T05:13:44;101999.29;;;6.06;83.13
60817;BME280;51921;51.518;-3.188;2023-05-21T05:16:10;102009.54;;;5.35;89.41
60817;BME280;51921;51.518;-3.188;2023-05-21T05:18:35;102001.58;;;5.43;89.53
60817;BME280;51921;51.518;-3.188;2023-05-21T05:21:01;101996.75;;;5.61;89.72
60817;BME280;51921;51.518;-3.188;2023-05-21T05:23:26;101998.70;;;6.12;87.14
60817;BME280;51921;51.518;-3.188;2023-05-21T05:25:52;101998.33;;;5.32;88.93
60817;BME280;51921;51.518;-3.188;2023-05-21T05:28:18;101994.05;;;5.86;89.15
60817;BME280;51921;51.518;-3.188;2023-05-21T05:30:43;101996.98;;;5.65;88.92
60817;BME280;51921;51.518;-3.188;2023-05-21T05:33:09;101997.66;;;5.58;89.47
60817;BME280;51921;51.518;-3.188;2023-05-21T05:35:34;101995.25;;;5.59;89.30
60817;BME280;51921;51.518;-3.188;2023-05-21T05:38:00;101992.88;;;5.95;86.56
60817;BME280;51921;51.518;-3.188;2023-05-21T05:40:26;101993.24;;;6.63;82.06
60817;BME280;51921;51.518;-3.188;2023-05-21T05:42:51;101987.07;;;7.88;75.06
60817;BME280;51921;51.518;-3.188;2023-05-21T05:45:17;101988.45;;;6.52;78.45
60817;BME280;51921;51.518;-3.188;2023-05-21T05:47:42;101986.51;;;6.89;76.53
60817;BME280;51921;51.518;-3.188;2023-05-21T05:50:08;101990.66;;;7.23;74.59
60817;BME280;51921;51.518;-3.188;2023-05-21T05:52:33;101993.29;;;7.44;77.71
60817;BME280;51921;51.518;-3.188;2023-05-21T05:54:59;101995.68;;;7.65;75.10
60817;BME280;51921;51.518;-3.188;2023-05-21T05:57:25;101992.36;;;6.44;80.24
60817;BME280;51921;51.518;-3.188;2023-05-21T05:59:50;101991.85;;;7.14;75.81
60817;BME280;51921;51.518;-3.188;2023-05-21T06:02:16;101993.28;;;7.27;75.05
60817;BME280;51921;51.518;-3.188;2023-05-21T06:04:42;101992.69;;;7.41;76.76
60817;BME280;51921;51.518;-3.188;2023-05-21T06:07:07;101992.57;;;7.18;76.93
60817;BME280;51921;51.518;-3.188;2023-05-21T06:09:32;101996.83;;;8.74;69.78
60817;BME280;51921;51.518;-3.188;2023-05-21T06:11:58;102000.46;;;7.41;74.48
60817;BME280;51921;51.518;-3.188;2023-05-21T06:14:23;102008.66;;;6.49;81.66
60817;BME280;51921;51.518;-3.188;2023-05-21T06:16:49;102006.53;;;7.16;80.64
60817;BME280;51921;51.518;-3.188;2023-05-21T06:19:14;102013.76;;;7.69;77.40
60817;BME280;51921;51.518;-3.188;2023-05-21T06:21:40;102013.95;;;7.47;79.16
60817;BME280;51921;51.518;-3.188;2023-05-21T06:24:06;102018.68;;;7.07;82.81
60817;BME280;51921;51.518;-3.188;2023-05-21T06:26:31;102021.67;;;7.07;83.87
60817;BME280;51921;51.518;-3.188;2023-05-21T06:28:57;102019.83;;;6.88;84.22
60817;BME280;51921;51.518;-3.188;2023-05-21T06:31:22;102018.10;;;6.98;85.16
60817;BME280;51921;51.518;-3.188;2023-05-21T06:33:48;102019.92;;;7.19;84.34
60817;BME280;51921;51.518;-3.188;2023-05-21T06:36:13;102020.01;;;6.66;85.55
60817;BME280;51921;51.518;-3.188;2023-05-21T06:38:39;102018.37;;;6.51;88.93
60817;BME280;51921;51.518;-3.188;2023-05-21T06:41:05;102020.00;;;6.45;90.13
60817;BME280;51921;51.518;-3.188;2023-05-21T06:43:30;102021.34;;;6.82;89.47
60817;BME280;51921;51.518;-3.188;2023-05-21T06:45:56;102024.78;;;7.32;86.82
60817;BME280;51921;51.518;-3.188;2023-05-21T06:48:21;102028.67;;;6.99;89.66
60817;BME280;51921;51.518;-3.188;2023-05-21T06:50:47;102027.66;;;8.69;80.89
60817;BME280;51921;51.518;-3.188;2023-05-21T06:53:12;102030.23;;;7.84;81.60
60817;BME280;51921;51.518;-3.188;2023-05-21T06:55:38;102032.94;;;8.23;76.23
60817;BME280;51921;51.518;-3.188;2023-05-21T06:58:03;102028.05;;;7.61;84.02
60817;BME280;51921;51.518;-3.188;2023-05-21T07:00:29;102033.61;;;7.19;85.84
60817;BME280;51921;51.518;-3.188;2023-05-21T07:02:54;102030.40;;;7.69;83.57
60817;BME280;51921;51.518;-3.188;2023-05-21T07:05:20;102037.91;;;7.19;86.21
60817;BME280;51921;51.518;-3.188;2023-05-21T07:07:45;102039.26;;;7.37;84.17
60817;BME280;51921;51.518;-3.188;2023-05-21T07:10:11;102032.41;;;7.59;81.77
60817;BME280;51921;51.518;-3.188;2023-05-21T07:12:36;102036.29;;;8.74;78.82
60817;BME280;51921;51.518;-3.188;2023-05-21T07:15:02;102032.70;;;8.72;77.51
60817;BME280;51921;51.518;-3.188;2023-05-21T07:17:27;102036.75;;;8.56;74.11
60817;BME280;51921;51.518;-3.188;2023-05-21T07:19:53;102038.14;;;9.27;71.60
60817;BME280;51921;51.518;-3.188;2023-05-21T07:22:19;102039.79;;;9.52;67.98
60817;BME280;51921;51.518;-3.188;2023-05-21T07:24:44;102033.43;;;9.97;68.84
60817;BME280;51921;51.518;-3.188;2023-05-21T07:27:10;102032.39;;;9.09;71.15
60817;BME280;51921;51.518;-3.188;2023-05-21T07:29:35;102032.11;;;9.36;68.16
60817;BME280;51921;51.518;-3.188;2023-05-21T07:32:01;102035.91;;;9.93;68.80
60817;BME280;51921;51.518;-3.188;2023-05-21T07:34:26;102036.97;;;9.42;68.79
60817;BME280;51921;51.518;-3.188;2023-05-21T07:36:52;102034.67;;;9.17;69.99
60817;BME280;51921;51.518;-3.188;2023-05-21T07:39:17;102034.96;;;9.56;67.69
60817;BME280;51921;51.518;-3.188;2023-05-21T07:41:43;102037.15;;;9.93;67.60
60817;BME280;51921;51.518;-3.188;2023-05-21T07:44:08;102026.30;;;10.45;60.94
60817;BME280;51921;51.518;-3.188;2023-05-21T07:46:34;102031.20;;;10.18;62.31
60817;BME280;51921;51.518;-3.188;2023-05-21T07:48:59;102032.89;;;8.77;66.29
60817;BME280;51921;51.518;-3.188;2023-05-21T07:51:25;102030.78;;;9.86;62.09
60817;BME280;51921;51.518;-3.188;2023-05-21T07:53:50;102036.85;;;9.98;63.33
60817;BME280;51921;51.518;-3.188;2023-05-21T07:56:16;102039.72;;;9.82;60.02
60817;BME280;51921;51.518;-3.188;2023-05-21T07:58:41;102039.70;;;10.98;55.22
60817;BME280;51921;51.518;-3.188;2023-05-21T08:01:06;102044.28;;;11.29;53.98
60817;BME280;51921;51.518;-3.188;2023-05-21T08:03:32;102035.04;;;12.29;51.47
60817;BME280;51921;51.518;-3.188;2023-05-21T08:05:57;102035.50;;;11.75;50.98
60817;BME280;51921;51.518;-3.188;2023-05-21T08:08:23;102029.55;;;13.24;48.44
60817;BME280;51921;51.518;-3.188;2023-05-21T08:10:48;102024.75;;;10.97;51.28
60817;BME280;51921;51.518;-3.188;2023-05-21T08:13:14;102021.53;;;10.28;54.80
60817;BME280;51921;51.518;-3.188;2023-05-21T08:15:39;102025.36;;;11.12;52.71
60817;BME280;51921;51.518;-3.188;2023-05-21T08:18:05;102021.48;;;11.45;50.87
60817;BME280;51921;51.518;-3.188;2023-05-21T08:20:30;102023.38;;;14.17;44.61
60817;BME280;51921;51.518;-3.188;2023-05-21T08:22:55;102033.41;;;10.41;53.80
60817;BME280;51921;51.518;-3.188;2023-05-21T08:25:21;102025.40;;;10.59;52.96
60817;BME280;51921;51.518;-3.188;2023-05-21T08:27:46;102022.97;;;12.00;50.18
60817;BME280;51921;51.518;-3.188;2023-05-21T08:30:12;102024.59;;;11.17;51.04
60817;BME280;51921;51.518;-3.188;2023-05-21T08:32:37;102023.06;;;10.52;51.91
60817;BME280;51921;51.518;-3.188;2023-05-21T08:35:03;102026.32;;;10.35;52.60
60817;BME280;51921;51.518;-3.188;2023-05-21T08:37:28;102020.25;;;10.82;53.02
60817;BME280;51921;51.518;-3.188;2023-05-21T08:39:54;102016.91;;;11.10;50.64
60817;BME280;51921;51.518;-3.188;2023-05-21T08:42:26;102019.07;;;10.53;51.82
60817;BME280;51921;51.518;-3.188;2023-05-21T08:44:48;102025.13;;;10.25;54.39
60817;BME280;51921;51.518;-3.188;2023-05-21T08:47:13;102027.21;;;10.96;52.56
60817;BME280;51921;51.518;-3.188;2023-05-21T08:49:36;102024.00;;;10.78;52.21
60817;BME280;51921;51.518;-3.188;2023-05-21T08:52:01;102024.35;;;10.29;52.75
60817;BME280;51921;51.518;-3.188;2023-05-21T08:54:26;102021.07;;;10.45;52.24
60817;BME280;51921;51.518;-3.188;2023-05-21T08:56:52;102024.48;;;11.31;52.12
60817;BME280;51921;51.518;-3.188;2023-05-21T08:59:17;102016.27;;;12.16;49.46
60817;BME280;51921;51.518;-3.188;2023-05-21T09:01:43;102013.57;;;12.33;49.73
60817;BME280;51921;51.518;-3.188;2023-05-21T09:04:08;102010.89;;;12.94;49.30
60817;BME280;51921;51.518;-3.188;2023-05-21T09:06:33;102011.32;;;11.96;50.04
60817;BME280;51921;51.518;-3.188;2023-05-21T09:09:03;102016.52;;;11.41;51.04
60817;BME280;51921;51.518;-3.188;2023-05-21T09:11:25;102011.92;;;12.40;50.13
60817;BME280;51921;51.518;-3.188;2023-05-21T09:13:50;102012.90;;;11.79;49.43
60817;BME280;51921;51.518;-3.188;2023-05-21T09:16:15;102013.34;;;11.50;47.92
60817;BME280;51921;51.518;-3.188;2023-05-21T09:18:40;102013.68;;;11.20;50.13
60817;BME280;51921;51.518;-3.188;2023-05-21T09:23:31;102010.73;;;11.47;50.60
60817;BME280;51921;51.518;-3.188;2023-05-21T09:25:56;102010.38;;;10.68;52.17
60817;BME280;51921;51.518;-3.188;2023-05-21T09:28:22;102014.26;;;11.29;51.32
60817;BME280;51921;51.518;-3.188;2023-05-21T09:30:50;102006.49;;;11.08;48.04
60817;BME280;51921;51.518;-3.188;2023-05-21T09:33:23;102007.69;;;10.48;51.42
60817;BME280;51921;51.518;-3.188;2023-05-21T09:35:43;102001.70;;;11.86;50.18
60817;BME280;51921;51.518;-3.188;2023-05-21T09:38:07;102007.64;;;11.09;51.34
60817;BME280;51921;51.518;-3.188;2023-05-21T09:40:29;102002.38;;;11.94;49.55
60817;BME280;51921;51.518;-3.188;2023-05-21T09:42:55;102004.08;;;11.70;50.72
60817;BME280;51921;51.518;-3.188;2023-05-21T09:45:21;101999.93;;;11.15;52.40
60817;BME280;51921;51.518;-3.188;2023-05-21T09:47:46;101998.19;;;11.02;54.68
60817;BME280;51921;51.518;-3.188;2023-05-21T09:50:12;101998.02;;;10.95;55.03
60817;BME280;51921;51.518;-3.188;2023-05-21T09:52:37;101993.56;;;11.58;51.61
60817;BME280;51921;51.518;-3.188;2023-05-21T09:55:02;101995.30;;;11.13;51.57
60817;BME280;51921;51.518;-3.188;2023-05-21T09:57:28;101985.93;;;13.70;50.84
60817;BME280;51921;51.518;-3.188;2023-05-21T09:59:53;101980.12;;;11.62;48.77
60817;BME280;51921;51.518;-3.188;2023-05-21T10:02:20;101979.43;;;11.46;51.21
60817;BME280;51921;51.518;-3.188;2023-05-21T10:04:44;101984.96;;;11.39;47.57
60817;BME280;51921;51.518;-3.188;2023-05-21T10:07:09;101980.48;;;11.06;45.62
60817;BME280;51921;51.518;-3.188;2023-05-21T10:09:34;101984.18;;;10.68;50.06
60817;BME280;51921;51.518;-3.188;2023-05-21T10:12:00;101985.27;;;11.11;49.97
60817;BME280;51921;51.518;-3.188;2023-05-21T10:14:26;101986.01;;;11.06;48.10
60817;BME280;51921;51.518;-3.188;2023-05-21T10:16:51;101978.84;;;11.20;50.00
60817;BME280;51921;51.518;-3.188;2023-05-21T10:19:16;101970.34;;;11.78;46.69
60817;BME280;51921;51.518;-3.188;2023-05-21T10:21:41;101972.55;;;11.77;45.94
60817;BME280;51921;51.518;-3.188;2023-05-21T10:24:08;101972.33;;;10.82;43.56
60817;BME280;51921;51.518;-3.188;2023-05-21T10:26:32;101973.91;;;11.62;43.87
60817;BME280;51921;51.518;-3.188;2023-05-21T10:28:58;101964.21;;;11.62;45.68
60817;BME280;51921;51.518;-3.188;2023-05-21T10:31:24;101966.90;;;12.21;43.35
60817;BME280;51921;51.518;-3.188;2023-05-21T10:33:51;101967.43;;;11.83;41.48
60817;BME280;51921;51.518;-3.188;2023-05-21T10:36:15;101959.73;;;11.93;43.91
60817;BME280;51921;51.518;-3.188;2023-05-21T10:38:39;101957.55;;;11.49;46.28
60817;BME280;51921;51.518;-3.188;2023-05-21T10:41:05;101953.72;;;12.30;44.05
60817;BME280;51921;51.518;-3.188;2023-05-21T10:43:42;101954.25;;;11.96;45.30
60817;BME280;51921;51.518;-3.188;2023-05-21T10:46:14;101954.48;;;12.21;45.10
60817;BME280;51921;51.518;-3.188;2023-05-21T10:48:32;101951.66;;;11.84;45.87
60817;BME280;51921;51.518;-3.188;2023-05-21T10:51:07;101958.45;;;12.36;42.22
60817;BME280;51921;51.518;-3.188;2023-05-21T10:53:18;101951.52;;;12.39;42.19
60817;BME280;51921;51.518;-3.188;2023-05-21T10:55:48;101953.14;;;12.89;40.42
60817;BME280;51921;51.518;-3.188;2023-05-21T10:58:13;101949.03;;;12.61;39.32
60817;BME280;51921;51.518;-3.188;2023-05-21T11:00:29;101947.19;;;12.73;42.04
60817;BME280;51921;51.518;-3.188;2023-05-21T11:02:54;101944.67;;;12.91;43.08
60817;BME280;51921;51.518;-3.188;2023-05-21T11:07:51;101949.71;;;12.52;43.15
60817;BME280;51921;51.518;-3.188;2023-05-21T11:15:01;101936.53;;;12.93;44.49
60817;BME280;51921;51.518;-3.188;2023-05-21T11:17:35;101935.28;;;13.51;42.38
60817;BME280;51921;51.518;-3.188;2023-05-21T11:19:53;101942.57;;;13.28;40.95
60817;BME280;51921;51.518;-3.188;2023-05-21T11:22:21;101930.38;;;13.11;40.07
60817;BME280;51921;51.518;-3.188;2023-05-21T11:24:43;101924.64;;;12.63;41.28
60817;BME280;51921;51.518;-3.188;2023-05-21T11:27:08;101920.40;;;12.35;41.31
60817;BME280;51921;51.518;-3.188;2023-05-21T11:29:41;101923.72;;;12.73;41.61
60817;BME280;51921;51.518;-3.188;2023-05-21T11:32:00;101921.44;;;12.41;42.51
60817;BME280;51921;51.518;-3.188;2023-05-21T11:34:25;101910.61;;;12.40;41.78
60817;BME280;51921;51.518;-3.188;2023-05-21T11:39:16;101909.14;;;12.90;42.20
60817;BME280;51921;51.518;-3.188;2023-05-21T11:41:50;101911.24;;;13.94;40.10
60817;BME280;51921;51.518;-3.188;2023-05-21T11:44:07;101909.19;;;13.17;41.53
60817;BME280;51921;51.518;-3.188;2023-05-21T11:46:33;101911.76;;;13.73;39.35
60817;BME280;51921;51.518;-3.188;2023-05-21T11:48:58;101902.30;;;13.16;37.37
60817;BME280;51921;51.518;-3.188;2023-05-21T11:51:23;101898.80;;;13.51;38.91
60817;BME280;51921;51.518;-3.188;2023-05-21T11:53:48;101914.53;;;12.98;39.07
60817;BME280;51921;51.518;-3.188;2023-05-21T11:56:13;101914.99;;;12.73;41.09
60817;BME280;51921;51.518;-3.188;2023-05-21T11:58:41;101910.16;;;13.42;41.64
60817;BME280;51921;51.518;-3.188;2023-05-21T12:01:04;101911.68;;;13.91;40.20
60817;BME280;51921;51.518;-3.188;2023-05-21T12:03:33;101903.23;;;14.21;39.39
60817;BME280;51921;51.518;-3.188;2023-05-21T12:06:03;101904.69;;;14.58;39.30
60817;BME280;51921;51.518;-3.188;2023-05-21T12:08:21;101909.31;;;12.94;42.55
60817;BME280;51921;51.518;-3.188;2023-05-21T12:10:45;101910.06;;;12.56;41.50
60817;BME280;51921;51.518;-3.188;2023-05-21T12:13:11;101900.14;;;14.32;41.34
60817;BME280;51921;51.518;-3.188;2023-05-21T12:15:36;101898.59;;;13.25;40.58
60817;BME280;51921;51.518;-3.188;2023-05-21T12:18:02;101889.90;;;13.94;41.72
60817;BME280;51921;51.518;-3.188;2023-05-21T12:20:27;101893.62;;;13.67;39.56
60817;BME280;51921;51.518;-3.188;2023-05-21T12:22:52;101886.35;;;14.55;37.33
60817;BME280;51921;51.518;-3.188;2023-05-21T12:25:18;101896.91;;;13.66;39.92
60817;BME280;51921;51.518;-3.188;2023-05-21T12:27:43;101897.68;;;14.22;39.42
60817;BME280;51921;51.518;-3.188;2023-05-21T12:30:09;101887.28;;;14.53;39.14
60817;BME280;51921;51.518;-3.188;2023-05-21T12:32:34;101882.00;;;14.38;39.18
60817;BME280;51921;51.518;-3.188;2023-05-21T12:35:00;101872.96;;;15.65;36.54
60817;BME280;51921;51.518;-3.188;2023-05-21T12:37:26;101880.80;;;14.18;36.88
60817;BME280;51921;51.518;-3.188;2023-05-21T12:39:53;101885.89;;;13.25;39.42
60817;BME280;51921;51.518;-3.188;2023-05-21T12:42:22;101878.14;;;13.91;37.69
60817;BME280;51921;51.518;-3.188;2023-05-21T12:44:45;101886.08;;;13.80;38.45
60817;BME280;51921;51.518;-3.188;2023-05-21T12:47:07;101886.03;;;14.53;37.70